createdAt,value
2019-03-08T00:01:06.688Z,11.67
2019-03-08T00:03:38.332Z,12.33
2019-03-08T00:06:09.941Z,10.63
2019-03-08T00:08:41.846Z,13.83
2019-03-08T00:11:13.622Z,9.80
2019-03-08T00:13:45.302Z,9.47
2019-03-08T00:16:19.152Z,6.53
2019-03-08T00:18:53.972Z,10.63
2019-03-08T00:21:25.544Z,11.30
2019-03-08T00:23:57.365Z,19.97
2019-03-08T00:26:29.114Z,13.70
2019-03-08T00:29:00.897Z,19.43
2019-03-08T00:31:32.695Z,19.40
2019-03-08T00:34:04.455Z,17.47
2019-03-08T00:36:36.143Z,22.13
2019-03-08T00:39:08.585Z,41.47
2019-03-08T00:41:41.422Z,25.93
2019-03-08T00:44:13.503Z,30.00
2019-03-08T00:46:45.155Z,20.90
2019-03-08T00:49:16.856Z,22.50
2019-03-08T00:51:48.563Z,19.30
2019-03-08T00:54:20.243Z,14.93
2019-03-08T00:56:53.372Z,22.47
2019-03-08T00:59:25.118Z,13.10
2019-03-08T01:01:56.853Z,15.90
2019-03-08T01:04:28.559Z,11.97
2019-03-08T01:07:00.340Z,12.73
2019-03-08T01:09:32.264Z,18.47
2019-03-08T01:12:04.067Z,15.80
2019-03-08T01:14:35.900Z,12.67
2019-03-08T01:17:07.494Z,18.90
2019-03-08T01:19:39.583Z,11.40
2019-03-08T01:22:12.503Z,12.87
2019-03-08T01:24:44.074Z,8.97
2019-03-08T01:27:15.684Z,14.10
2019-03-08T01:29:47.633Z,13.20
2019-03-08T01:32:19.526Z,19.63
2019-03-08T01:34:51.600Z,14.00
2019-03-08T01:37:23.331Z,20.43
2019-03-08T01:39:55.050Z,20.27
2019-03-08T01:42:26.783Z,16.77
2019-03-08T01:44:58.536Z,12.23
2019-03-08T01:47:30.233Z,13.20
2019-03-08T01:50:04.843Z,16.50
2019-03-08T01:52:36.680Z,17.87
2019-03-08T01:55:08.631Z,20.30
2019-03-08T01:57:40.350Z,20.00
2019-03-08T02:00:16.287Z,18.33
2019-03-08T02:02:48.390Z,18.70
2019-03-08T02:05:20.659Z,12.53
2019-03-08T02:07:52.406Z,11.73
2019-03-08T02:10:24.077Z,17.63
2019-03-08T02:12:55.904Z,18.50
2019-03-08T02:15:27.628Z,15.30
2019-03-08T02:17:59.482Z,17.30
2019-03-08T02:20:31.126Z,17.97
2019-03-08T02:23:02.905Z,15.10
2019-03-08T02:25:34.575Z,18.27
2019-03-08T02:28:06.382Z,17.73
2019-03-08T02:30:38.177Z,13.67
2019-03-08T02:33:09.890Z,16.40
2019-03-08T02:35:43.608Z,14.00
2019-03-08T02:38:15.533Z,19.60
2019-03-08T02:40:47.662Z,15.57
2019-03-08T02:43:20.344Z,22.47
2019-03-08T02:45:52.003Z,20.77
2019-03-08T02:48:23.705Z,20.93
2019-03-08T02:50:55.493Z,21.17
2019-03-08T02:53:27.252Z,21.10
2019-03-08T02:55:58.968Z,20.03
2019-03-08T02:58:30.628Z,24.00
2019-03-08T03:01:02.508Z,19.50
2019-03-08T03:03:34.709Z,18.93
2019-03-08T03:06:06.580Z,29.67
2019-03-08T03:08:38.359Z,37.47
2019-03-08T03:11:10.028Z,26.83
2019-03-08T03:13:41.948Z,34.33
2019-03-08T03:16:14.958Z,23.77
2019-03-08T03:18:46.540Z,30.63
2019-03-08T03:21:18.260Z,25.97
2019-03-08T03:23:50.128Z,28.90
2019-03-08T03:26:21.900Z,22.20
2019-03-08T03:28:53.616Z,22.10
2019-03-08T03:31:26.603Z,20.47
2019-03-08T03:33:58.258Z,21.83
2019-03-08T03:36:30.087Z,25.13
2019-03-08T03:39:01.890Z,23.47
2019-03-08T03:41:35.218Z,27.17
2019-03-08T03:44:06.787Z,22.03
2019-03-08T03:46:38.383Z,23.80
2019-03-08T03:49:10.163Z,29.10
2019-03-08T03:51:41.973Z,29.77
2019-03-08T03:54:13.441Z,25.10
2019-03-08T03:56:46.775Z,36.73
2019-03-08T03:59:18.610Z,30.50
2019-03-08T04:01:51.254Z,28.13
2019-03-08T04:04:23.029Z,30.80
2019-03-08T04:06:54.799Z,27.60
2019-03-08T04:09:27.593Z,35.73
2019-03-08T04:11:59.330Z,27.53
2019-03-08T04:14:30.942Z,26.83
2019-03-08T04:17:02.726Z,25.33
2019-03-08T04:19:34.299Z,27.47
2019-03-08T04:22:05.991Z,28.37
2019-03-08T04:24:37.608Z,50.27
2019-03-08T04:27:09.384Z,43.53
2019-03-08T04:29:41.092Z,44.60
2019-03-08T04:32:12.858Z,38.57
2019-03-08T04:34:44.789Z,29.77
2019-03-08T04:37:16.676Z,29.03
2019-03-08T04:39:48.426Z,26.07
2019-03-08T04:42:20.098Z,29.70
2019-03-08T04:44:54.587Z,31.53
2019-03-08T04:47:26.310Z,28.37
2019-03-08T04:49:58.015Z,25.10
2019-03-08T04:52:29.673Z,25.03
2019-03-08T04:55:01.402Z,28.53
2019-03-08T04:57:33.252Z,23.67
2019-03-08T05:00:05.122Z,26.17
2019-03-08T05:02:36.993Z,25.03
2019-03-08T05:05:08.850Z,28.83
2019-03-08T05:07:40.704Z,27.23
2019-03-08T05:10:14.067Z,25.17
2019-03-08T05:12:46.037Z,27.87
2019-03-08T05:15:17.908Z,30.13
2019-03-08T05:17:51.054Z,55.03
2019-03-08T05:20:22.833Z,33.83
2019-03-08T05:22:54.709Z,29.73
2019-03-08T05:25:28.739Z,32.07
2019-03-08T05:28:00.480Z,27.27
2019-03-08T05:30:32.209Z,35.77
2019-03-08T05:33:03.944Z,28.60
2019-03-08T05:35:35.969Z,38.23
2019-03-08T05:38:07.707Z,28.23
2019-03-08T05:40:40.622Z,24.57
2019-03-08T05:43:12.331Z,28.67
2019-03-08T05:45:44.071Z,23.37
2019-03-08T05:48:20.091Z,28.67
2019-03-08T05:50:51.864Z,23.30
2019-03-08T05:53:23.522Z,22.93
2019-03-08T05:55:55.293Z,30.03
2019-03-08T05:58:27.045Z,27.03
2019-03-08T06:01:01.461Z,27.40
2019-03-08T06:03:33.274Z,23.07
2019-03-08T06:06:05.050Z,23.20
2019-03-08T06:08:36.661Z,25.27
2019-03-08T06:11:08.618Z,22.73
2019-03-08T06:13:40.306Z,22.73
2019-03-08T06:16:12.160Z,21.70
2019-03-08T06:18:44.076Z,22.00
2019-03-08T06:21:15.768Z,25.80
2019-03-08T06:23:47.298Z,25.70
2019-03-08T06:26:19.009Z,20.73
2019-03-08T06:28:53.858Z,27.17
2019-03-08T06:31:25.729Z,23.10
2019-03-08T06:33:59.154Z,20.77
2019-03-08T06:36:30.829Z,22.63
2019-03-08T06:39:02.579Z,22.63
2019-03-08T06:41:35.700Z,24.10
2019-03-08T06:44:07.580Z,22.73
2019-03-08T06:46:39.495Z,24.20
2019-03-08T06:49:11.327Z,24.00
2019-03-08T06:51:43.123Z,27.17
2019-03-08T06:54:14.934Z,20.77
2019-03-08T06:56:46.855Z,20.93
2019-03-08T06:59:24.954Z,28.60
2019-03-08T07:01:56.706Z,20.87
2019-03-08T07:04:28.619Z,24.93
2019-03-08T07:07:00.329Z,17.60
2019-03-08T07:09:32.109Z,17.57
2019-03-08T07:12:03.881Z,19.63
2019-03-08T07:14:38.296Z,23.00
2019-03-08T07:17:10.074Z,16.33
2019-03-08T07:19:57.488Z,18.33
2019-03-08T07:22:52.529Z,16.30
2019-03-08T07:25:51.103Z,17.10
2019-03-08T07:28:36.020Z,18.90
2019-03-08T07:31:35.888Z,17.00
2019-03-08T07:34:16.916Z,18.93
2019-03-08T07:37:08.460Z,20.63
2019-03-08T07:39:53.044Z,20.03
2019-03-08T07:42:42.280Z,15.83
2019-03-08T07:45:33.364Z,17.83
2019-03-08T07:48:20.917Z,16.43
2019-03-08T07:51:14.860Z,18.87
2019-03-08T07:53:57.351Z,16.77
2019-03-08T07:56:41.794Z,17.53
2019-03-08T07:59:53.646Z,19.60
2019-03-08T08:02:48.774Z,18.70
2019-03-08T08:05:39.224Z,16.20
2019-03-08T08:08:24.143Z,18.47
2019-03-08T08:11:13.446Z,22.70
2019-03-08T08:14:01.117Z,22.57
2019-03-08T08:16:51.771Z,17.60
2019-03-08T08:19:40.973Z,15.73
2019-03-08T08:22:46.863Z,16.07
2019-03-08T08:25:37.007Z,11.20
2019-03-08T08:28:16.713Z,15.73
2019-03-08T08:31:06.598Z,14.53
2019-03-08T08:33:57.116Z,17.33
2019-03-08T08:36:41.938Z,21.07
2019-03-08T08:39:32.220Z,18.90
2019-03-08T08:42:22.728Z,15.37
2019-03-08T08:45:12.618Z,11.83
2019-03-08T08:48:01.850Z,16.23
2019-03-08T08:50:55.198Z,15.47
2019-03-08T08:54:00.656Z,13.27
2019-03-08T08:56:50.406Z,14.53
2019-03-08T08:59:39.556Z,16.50
2019-03-08T09:02:28.418Z,12.90
2019-03-08T09:05:11.339Z,11.57
2019-03-08T09:08:13.890Z,14.17
2019-03-08T09:11:07.243Z,9.83
2019-03-08T09:13:52.741Z,12.70
2019-03-08T09:16:34.741Z,12.13
2019-03-08T09:19:25.367Z,10.43
2019-03-08T09:22:34.293Z,12.67
2019-03-08T09:25:18.772Z,13.20
2019-03-08T09:27:57.116Z,8.90
2019-03-08T09:30:36.397Z,9.10
2019-03-08T09:33:23.615Z,9.43
2019-03-08T09:36:14.137Z,8.70
2019-03-08T09:39:13.657Z,7.90
2019-03-08T09:42:04.173Z,13.35
2019-03-08T09:44:52.882Z,14.20
2019-03-08T09:47:43.106Z,9.63
2019-03-08T09:50:51.848Z,9.77
2019-03-08T09:53:35.915Z,8.33
2019-03-08T09:56:15.043Z,8.53
2019-03-08T09:59:03.442Z,8.68
2019-03-08T10:01:46.662Z,12.93
2019-03-08T10:04:35.494Z,11.78
2019-03-08T10:07:25.817Z,11.88
2019-03-08T10:10:08.169Z,12.63
2019-03-08T10:13:04.743Z,12.82
2019-03-08T10:15:47.490Z,10.48
2019-03-08T10:18:46.667Z,16.87
2019-03-08T10:21:28.408Z,13.30
2019-03-08T10:24:21.514Z,7.55
2019-03-08T10:27:03.591Z,13.70
2019-03-08T10:30:06.339Z,12.68
2019-03-08T10:33:03.342Z,12.18
2019-03-08T10:35:53.633Z,18.07
2019-03-08T10:38:36.535Z,9.08
2019-03-08T10:41:16.929Z,12.90
2019-03-08T10:44:09.092Z,10.32
2019-03-08T10:47:12.552Z,12.33
2019-03-08T10:49:55.448Z,10.08
2019-03-08T10:52:40.097Z,10.03
2019-03-08T10:55:46.331Z,7.17
2019-03-08T10:58:35.425Z,8.88
2019-03-08T11:01:22.403Z,10.20
2019-03-08T11:04:14.808Z,6.85
2019-03-08T11:07:11.785Z,10.48
2019-03-08T11:09:50.034Z,12.88
2019-03-08T11:12:47.032Z,8.63
2019-03-08T11:15:43.722Z,14.78
2019-03-08T11:18:22.743Z,11.70
2019-03-08T11:21:12.078Z,12.15
2019-03-08T11:23:51.155Z,9.75
2019-03-08T11:27:04.748Z,10.50
2019-03-08T11:29:48.606Z,11.88
2019-03-08T11:32:34.671Z,9.63
2019-03-08T11:35:28.371Z,12.05
2019-03-08T11:38:34.030Z,10.75
2019-03-08T11:41:31.455Z,6.90
2019-03-08T11:44:09.778Z,6.53
2019-03-08T11:47:18.395Z,8.23
2019-03-08T11:50:20.809Z,8.43
2019-03-08T11:53:05.593Z,9.85
2019-03-08T11:56:02.311Z,8.75
2019-03-08T11:58:58.851Z,12.82
2019-03-08T12:01:42.609Z,14.30
2019-03-08T12:04:36.076Z,17.70
2019-03-08T12:07:29.309Z,11.85
2019-03-08T12:10:18.440Z,11.53
2019-03-08T12:13:06.679Z,11.78
2019-03-08T12:16:15.397Z,17.15
2019-03-08T12:19:08.938Z,8.08
2019-03-08T12:21:59.463Z,10.68
2019-03-08T12:24:36.652Z,9.83
2019-03-08T12:27:23.682Z,11.53
2019-03-08T12:30:17.032Z,10.03
2019-03-08T12:33:25.799Z,15.72
2019-03-08T12:36:08.359Z,11.47
2019-03-08T12:38:53.126Z,13.20
2019-03-08T12:41:42.097Z,15.13
2019-03-08T12:44:25.285Z,9.47
2019-03-08T12:47:14.366Z,10.40
2019-03-08T12:50:22.727Z,13.60
2019-03-08T12:53:13.223Z,10.97
2019-03-08T12:56:02.493Z,12.73
2019-03-08T12:58:46.152Z,15.23
2019-03-08T13:01:24.964Z,11.93
2019-03-08T13:04:13.363Z,15.57
2019-03-08T13:07:13.025Z,11.40
2019-03-08T13:09:51.005Z,16.00
2019-03-08T13:12:22.571Z,12.77
2019-03-08T13:14:54.283Z,17.43
2019-03-08T13:17:25.958Z,22.40
2019-03-08T13:19:57.869Z,23.63
2019-03-08T13:22:29.760Z,14.63
2019-03-08T13:25:01.542Z,19.13
2019-03-08T13:27:33.490Z,18.07
2019-03-08T13:30:05.598Z,14.17
2019-03-08T13:32:37.492Z,14.23
2019-03-08T13:35:09.902Z,19.70
2019-03-08T13:37:41.488Z,21.60
2019-03-08T13:40:13.988Z,17.40
2019-03-08T13:42:45.641Z,18.00
2019-03-08T13:45:17.877Z,18.70
2019-03-08T13:47:49.424Z,19.73
2019-03-08T13:50:21.272Z,20.87
2019-03-08T13:52:53.081Z,28.93
2019-03-08T13:55:24.713Z,25.47
2019-03-08T13:57:56.405Z,22.17
2019-03-08T14:00:28.123Z,25.13
2019-03-08T14:02:59.812Z,19.50
2019-03-08T14:05:31.783Z,17.33
2019-03-08T14:08:03.501Z,18.07
2019-03-08T14:10:36.360Z,24.67
2019-03-08T14:13:07.964Z,34.27
2019-03-08T14:15:40.133Z,25.83
2019-03-08T14:18:11.886Z,23.87
2019-03-08T14:20:43.801Z,25.60
2019-03-08T14:23:15.685Z,17.43
2019-03-08T14:25:47.440Z,18.30
2019-03-08T14:28:19.259Z,15.33
2019-03-08T14:30:58.061Z,19.23
2019-03-08T14:33:30.156Z,22.30
2019-03-08T14:36:03.045Z,20.13
2019-03-08T14:38:39.050Z,26.77
2019-03-08T14:41:19.259Z,21.03
2019-03-08T14:43:56.295Z,24.87
2019-03-08T14:46:41.747Z,25.10
2019-03-08T14:49:13.479Z,16.13
2019-03-08T14:51:48.202Z,20.43
2019-03-08T14:54:18.630Z,17.10
2019-03-08T14:56:50.341Z,22.80
2019-03-08T14:59:22.027Z,16.00
2019-03-08T15:01:53.675Z,18.50
2019-03-08T15:04:25.237Z,17.87
2019-03-08T15:06:57.084Z,19.97
2019-03-08T15:09:29.403Z,21.43
2019-03-08T15:12:02.178Z,13.70
2019-03-08T15:14:35.243Z,20.40
2019-03-08T15:17:09.353Z,14.67
2019-03-08T15:19:41.818Z,18.40
2019-03-08T15:22:13.720Z,19.63
2019-03-08T15:24:45.797Z,20.53
2019-03-08T15:27:17.517Z,25.10
2019-03-08T15:29:54.463Z,21.33
2019-03-08T15:32:22.543Z,23.90
2019-03-08T15:34:54.906Z,16.60
2019-03-08T15:37:26.584Z,17.30
2019-03-08T15:39:58.413Z,19.70
2019-03-08T15:42:30.080Z,18.47
2019-03-08T15:45:05.397Z,21.27
2019-03-08T15:47:36.215Z,17.53
2019-03-08T15:50:10.954Z,16.30
2019-03-08T15:52:42.573Z,27.40
2019-03-08T15:55:14.283Z,14.30
2019-03-08T15:57:45.826Z,16.77
2019-03-08T16:00:22.080Z,12.30
2019-03-08T16:02:54.714Z,16.10
2019-03-08T16:05:28.337Z,25.30
2019-03-08T16:08:01.636Z,17.80
2019-03-08T16:10:33.330Z,11.23
2019-03-08T16:13:05.284Z,18.17
2019-03-08T16:15:37.116Z,15.03
2019-03-08T16:18:08.843Z,13.50
2019-03-08T16:20:40.794Z,12.10
2019-03-08T16:23:12.646Z,14.43
2019-03-08T16:25:47.659Z,18.33
2019-03-08T16:28:17.504Z,14.17
2019-03-08T16:30:53.254Z,16.77
2019-03-08T16:33:36.802Z,17.47
2019-03-08T16:36:16.123Z,15.63
2019-03-08T16:39:11.321Z,21.97
2019-03-08T16:42:00.690Z,39.13
2019-03-08T16:44:51.035Z,48.73
2019-03-08T16:47:53.184Z,40.07
2019-03-08T16:50:34.785Z,28.77
2019-03-08T16:53:16.314Z,123.10
2019-03-08T16:56:05.425Z,79.20
2019-03-08T16:58:58.633Z,108.93
2019-03-08T17:01:42.114Z,82.20
2019-03-08T17:04:47.744Z,61.70
2019-03-08T17:07:40.878Z,137.87
2019-03-08T17:10:35.220Z,121.40
2019-03-08T17:13:14.202Z,201.97
2019-03-08T17:16:10.644Z,79.43
2019-03-08T17:19:01.023Z,81.43
2019-03-08T17:21:58.398Z,45.10
2019-03-08T17:24:42.686Z,33.27
2019-03-08T17:27:33.036Z,94.47
2019-03-08T17:30:21.606Z,81.67
2019-03-08T17:33:20.948Z,64.20
2019-03-08T17:36:26.641Z,38.43
2019-03-08T17:39:31.928Z,67.03
2019-03-08T17:42:20.552Z,41.20
2019-03-08T17:45:23.024Z,36.87
2019-03-08T17:48:14.638Z,39.97
2019-03-08T17:51:05.157Z,31.67
2019-03-08T17:53:53.654Z,28.97
2019-03-08T17:56:34.445Z,29.43
2019-03-08T17:59:40.320Z,32.43
2019-03-08T18:02:21.581Z,45.97
2019-03-08T18:05:12.314Z,46.10
2019-03-08T18:08:02.817Z,42.63
2019-03-08T18:10:51.255Z,37.90
2019-03-08T18:13:41.649Z,43.27
2019-03-08T18:16:31.099Z,25.87
2019-03-08T18:19:20.859Z,22.93
2019-03-08T18:21:58.388Z,17.97
2019-03-08T18:24:39.985Z,28.03
2019-03-08T18:27:29.315Z,11.03
2019-03-08T18:30:19.717Z,12.40
2019-03-08T18:33:19.295Z,17.33
2019-03-08T18:36:13.650Z,14.57
2019-03-08T18:39:19.425Z,25.93
2019-03-08T18:42:09.964Z,24.37
2019-03-08T18:45:03.769Z,23.20
2019-03-08T18:47:57.344Z,18.57
2019-03-08T18:50:50.465Z,29.50
2019-03-08T18:53:45.515Z,34.10
2019-03-08T18:56:28.443Z,29.13
2019-03-08T18:59:11.361Z,47.83
2019-03-08T19:01:51.239Z,48.63
2019-03-08T19:04:50.599Z,25.87
2019-03-08T19:07:40.262Z,55.23
2019-03-08T19:10:33.732Z,65.60
2019-03-08T19:13:22.930Z,55.77
2019-03-08T19:16:03.650Z,75.40
2019-03-08T19:18:49.308Z,68.77
2019-03-08T19:21:38.829Z,127.77
2019-03-08T19:24:27.969Z,52.47
2019-03-08T19:27:36.561Z,78.93
2019-03-08T19:30:33.950Z,62.77
2019-03-08T19:33:28.038Z,44.97
2019-03-08T19:36:21.571Z,29.43
2019-03-08T19:39:18.139Z,58.77
2019-03-08T19:42:17.409Z,61.13
2019-03-08T19:45:00.826Z,111.07
2019-03-08T19:47:52.287Z,154.03
2019-03-08T19:50:48.928Z,118.20
2019-03-08T19:53:48.008Z,133.60
2019-03-08T19:56:53.585Z,126.57
2019-03-08T19:59:31.077Z,120.70
2019-03-08T20:02:41.748Z,75.83
2019-03-08T20:05:41.195Z,77.30
2019-03-08T20:08:47.059Z,93.30
2019-03-08T20:11:43.249Z,73.03
2019-03-08T20:14:27.603Z,77.23
2019-03-08T20:17:16.578Z,70.03
2019-03-08T20:23:01.619Z,102.37
2019-03-08T20:28:29.160Z,38.13
2019-03-08T20:31:31.360Z,23.13
2019-03-08T20:34:20.440Z,25.70
2019-03-08T20:37:02.508Z,29.47
2019-03-08T20:42:56.571Z,17.93
2019-03-08T20:48:17.100Z,15.97
2019-03-08T20:56:09.930Z,18.50
2019-03-08T21:01:22.799Z,13.47
2019-03-08T21:03:54.716Z,17.10
2019-03-08T21:06:26.476Z,17.40
2019-03-08T21:14:20.529Z,14.60
2019-03-08T21:22:14.766Z,15.83
2019-03-08T21:30:16.803Z,13.83
2019-03-08T21:35:29.639Z,14.80
2019-03-08T21:38:01.503Z,14.30
2019-03-08T21:43:14.298Z,16.23
2019-03-08T21:45:46.416Z,16.77
2019-03-08T21:50:59.150Z,16.03
2019-03-08T21:53:30.866Z,15.37
2019-03-08T22:01:23.506Z,16.10
2019-03-08T22:04:00.806Z,13.43
2019-03-08T22:06:32.646Z,13.20
2019-03-08T22:09:17.675Z,18.43
2019-03-08T22:11:49.475Z,16.70
2019-03-08T22:14:21.272Z,15.67
2019-03-08T22:16:52.957Z,17.77
2019-03-08T22:19:24.641Z,20.87
2019-03-08T22:21:56.662Z,16.80
2019-03-08T22:24:28.260Z,23.03
2019-03-08T22:26:59.941Z,18.20
2019-03-08T22:29:31.658Z,17.57
2019-03-08T22:32:03.456Z,20.23
2019-03-08T22:34:35.182Z,20.23
2019-03-08T22:37:06.814Z,17.73
2019-03-08T22:39:38.585Z,18.70
2019-03-08T22:42:10.363Z,18.27
2019-03-08T22:44:42.312Z,19.43
2019-03-08T22:47:14.010Z,17.57
2019-03-08T22:49:45.723Z,19.33
2019-03-08T22:52:17.408Z,17.77
2019-03-08T22:54:49.278Z,19.03
2019-03-08T22:57:20.963Z,25.17
2019-03-08T22:59:52.825Z,18.53
2019-03-08T23:02:25.489Z,24.13
2019-03-08T23:04:57.203Z,16.67
2019-03-08T23:07:29.061Z,19.97
2019-03-08T23:10:00.909Z,20.97
2019-03-08T23:12:34.069Z,22.53
2019-03-08T23:15:06.001Z,18.93
2019-03-08T23:17:37.991Z,17.00
2019-03-08T23:20:09.666Z,18.67
2019-03-08T23:22:41.402Z,20.03
2019-03-08T23:25:13.028Z,23.27
2019-03-08T23:27:52.929Z,17.97
2019-03-08T23:30:27.773Z,22.43
2019-03-08T23:32:59.449Z,17.60
2019-03-08T23:35:31.222Z,18.80
2019-03-08T23:38:02.888Z,15.33
2019-03-08T23:40:34.689Z,15.10
2019-03-08T23:43:06.471Z,13.40
2019-03-08T23:45:38.199Z,15.27
2019-03-08T23:48:10.227Z,15.47
2019-03-08T23:50:42.112Z,13.87
2019-03-08T23:53:13.765Z,16.90
2019-03-08T23:55:46.962Z,17.93
2019-03-08T23:58:18.567Z,16.37
